createdAt,value
2023-02-04T00:00:14.326Z,8.90
2023-02-04T00:05:18.986Z,8.90
2023-02-04T00:10:24.123Z,8.80
2023-02-04T00:15:27.900Z,8.90
2023-02-04T00:20:31.864Z,8.80
2023-02-04T00:25:37.172Z,8.80
2023-02-04T00:30:40.889Z,8.90
2023-02-04T00:35:46.044Z,8.90
2023-02-04T00:40:51.938Z,8.90
2023-02-04T00:45:55.639Z,8.90
2023-02-04T00:50:59.310Z,8.80
2023-02-04T00:56:04.326Z,8.90
2023-02-04T01:01:08.031Z,8.80
2023-02-04T01:06:12.415Z,8.80
2023-02-04T01:11:17.606Z,8.80
2023-02-04T01:16:21.538Z,8.80
2023-02-04T01:21:25.654Z,8.70
2023-02-04T01:26:30.848Z,8.80
2023-02-04T01:31:34.592Z,8.80
2023-02-04T01:36:39.449Z,8.70
2023-02-04T01:41:44.797Z,8.70
2023-02-04T01:46:48.668Z,8.70
2023-02-04T01:51:53.810Z,8.70
2023-02-04T01:56:58.960Z,8.70
2023-02-04T02:02:02.678Z,8.60
2023-02-04T02:07:09.919Z,8.70
2023-02-04T02:12:14.764Z,8.70
2023-02-04T02:17:18.460Z,8.70
2023-02-04T02:22:27.261Z,8.70
2023-02-04T02:27:32.598Z,8.70
2023-02-04T02:32:36.724Z,8.70
2023-02-04T02:37:40.611Z,8.70
2023-02-04T02:42:48.504Z,8.70
2023-02-04T02:47:52.963Z,8.70
2023-02-04T02:52:57.169Z,8.70
2023-02-04T02:58:02.631Z,8.70
2023-02-04T03:03:11.330Z,8.70
2023-02-04T03:08:17.178Z,8.60
2023-02-04T03:13:23.269Z,8.70
2023-02-04T03:18:27.214Z,8.60
2023-02-04T03:23:33.225Z,8.60
2023-02-04T03:28:43.233Z,8.60
2023-02-04T03:33:47.190Z,8.50
2023-02-04T03:38:52.243Z,8.50
2023-02-04T03:43:57.409Z,8.50
2023-02-04T03:49:01.033Z,8.40
2023-02-04T03:54:04.799Z,8.40
2023-02-04T03:59:09.896Z,8.40
2023-02-04T04:04:13.745Z,8.40
2023-02-04T04:09:17.463Z,8.40
2023-02-04T04:14:22.529Z,8.40
2023-02-04T04:19:26.192Z,8.40
2023-02-04T04:24:29.913Z,8.40
2023-02-04T04:29:35.116Z,8.40
2023-02-04T04:34:38.791Z,8.40
2023-02-04T04:39:42.629Z,8.40
2023-02-04T04:44:47.707Z,8.30
2023-02-04T04:49:51.474Z,8.30
2023-02-04T04:54:55.124Z,8.30
2023-02-04T05:00:00.161Z,8.30
2023-02-04T05:05:03.893Z,8.30
2023-02-04T05:10:08.211Z,8.20
2023-02-04T05:15:13.398Z,8.30
2023-02-04T05:20:17.280Z,8.30
2023-02-04T05:25:20.899Z,8.30
2023-02-04T05:30:26.069Z,8.30
2023-02-04T05:35:30.399Z,8.30
2023-02-04T05:40:34.206Z,8.30
2023-02-04T05:45:39.363Z,8.30
2023-02-04T05:50:43.024Z,8.20
2023-02-04T05:55:46.707Z,8.30
2023-02-04T06:00:51.776Z,8.30
2023-02-04T06:05:55.552Z,8.30
2023-02-04T06:10:59.245Z,8.30
2023-02-04T06:16:04.406Z,8.40
2023-02-04T06:21:08.057Z,8.40
2023-02-04T06:26:12.222Z,8.30
2023-02-04T06:31:17.319Z,8.30
2023-02-04T06:36:21.033Z,8.40
2023-02-04T06:41:24.744Z,8.30
2023-02-04T06:46:29.993Z,8.30
2023-02-04T06:51:33.952Z,8.20
2023-02-04T06:56:37.753Z,8.20
2023-02-04T07:01:42.837Z,8.30
2023-02-04T07:06:46.635Z,8.20
2023-02-04T07:11:50.336Z,8.30
2023-02-04T07:16:58.204Z,8.30
2023-02-04T07:22:01.842Z,8.30
2023-02-04T07:27:05.517Z,8.30
2023-02-04T07:32:10.618Z,8.30
2023-02-04T07:37:14.246Z,8.30
2023-02-04T07:42:18.055Z,8.40
2023-02-04T07:47:31.121Z,8.40
2023-02-04T07:52:34.934Z,8.40
2023-02-04T07:57:38.561Z,8.40
2023-02-04T08:02:43.928Z,8.50
2023-02-04T08:07:52.017Z,8.50
2023-02-04T08:12:55.729Z,8.50
2023-02-04T08:18:00.784Z,8.50
2023-02-04T08:23:04.498Z,8.60
2023-02-04T08:28:08.253Z,8.60
2023-02-04T08:33:13.564Z,8.60
2023-02-04T08:38:17.282Z,8.70
2023-02-04T08:43:21.086Z,8.80
2023-02-04T08:48:26.104Z,8.80
2023-02-04T08:53:29.962Z,8.70
2023-02-04T08:58:33.677Z,8.80
2023-02-04T09:03:39.199Z,8.80
2023-02-04T09:08:42.954Z,8.90
2023-02-04T09:13:46.892Z,8.90
2023-02-04T09:18:51.972Z,8.90
2023-02-04T09:23:55.677Z,9.10
2023-02-04T09:28:59.353Z,9.10
2023-02-04T09:34:04.593Z,9.20
2023-02-04T09:39:09.998Z,9.20
2023-02-04T09:44:17.703Z,9.30
2023-02-04T09:49:22.984Z,9.40
2023-02-04T09:54:26.781Z,9.40
2023-02-04T09:59:30.474Z,9.50
2023-02-04T10:04:35.858Z,9.60
2023-02-04T10:09:41.054Z,9.70
2023-02-04T10:14:45.540Z,9.70
2023-02-04T10:19:51.112Z,9.70
2023-02-04T10:24:54.888Z,9.80
2023-02-04T10:29:59.650Z,9.80
2023-02-04T10:35:07.876Z,10.10
2023-02-04T10:40:29.906Z,10.30
2023-02-04T10:45:33.632Z,10.30
2023-02-04T10:50:38.829Z,10.40
2023-02-04T10:55:42.597Z,10.40
2023-02-04T11:00:46.373Z,10.50
2023-02-04T11:05:52.300Z,10.60
2023-02-04T11:10:59.306Z,10.60
2023-02-04T11:16:25.151Z,10.70
2023-02-04T11:21:42.390Z,10.90
2023-02-04T11:26:47.489Z,11.00
2023-02-04T11:32:05.062Z,10.90
2023-02-04T11:37:18.708Z,10.90
2023-02-04T11:42:27.883Z,10.90
2023-02-04T11:47:37.267Z,10.90
2023-02-04T11:52:42.390Z,10.90
2023-02-04T11:57:47.126Z,11.00
2023-02-04T12:02:52.829Z,11.00
2023-02-04T12:08:11.689Z,10.90
2023-02-04T12:13:25.179Z,11.00
2023-02-04T12:18:29.659Z,11.00
2023-02-04T12:23:34.875Z,11.00
2023-02-04T12:28:38.518Z,11.00
2023-02-04T12:33:42.296Z,11.00
2023-02-04T12:38:47.421Z,11.00
2023-02-04T12:43:51.302Z,11.00
2023-02-04T12:48:55.091Z,11.00
2023-02-04T12:54:00.231Z,11.00
2023-02-04T12:59:03.940Z,11.00
2023-02-04T13:04:07.780Z,11.00
2023-02-04T13:09:12.839Z,10.90
2023-02-04T13:14:16.775Z,11.00
2023-02-04T13:19:20.556Z,11.00
2023-02-04T13:24:25.808Z,10.90
2023-02-04T13:29:29.452Z,10.90
2023-02-04T13:34:33.185Z,10.80
2023-02-04T13:39:38.621Z,10.80
2023-02-04T13:44:42.519Z,10.70
2023-02-04T13:49:46.368Z,10.70
2023-02-04T13:54:51.502Z,10.70
2023-02-04T13:59:55.637Z,10.70
2023-02-04T14:04:59.898Z,10.70
2023-02-04T14:10:05.327Z,10.70
2023-02-04T14:15:10.001Z,10.80
2023-02-04T14:20:14.170Z,10.80
2023-02-04T14:25:19.503Z,10.80
2023-02-04T14:30:25.064Z,10.80
2023-02-04T14:35:29.701Z,10.80
2023-02-04T14:40:35.031Z,10.80
2023-02-04T14:45:40.112Z,10.80
2023-02-04T14:50:43.756Z,10.80
2023-02-04T14:55:48.882Z,10.80
2023-02-04T15:00:52.564Z,10.90
2023-02-04T15:05:56.279Z,10.90
2023-02-04T15:11:01.377Z,10.90
2023-02-04T15:16:05.651Z,10.80
2023-02-04T15:21:09.843Z,10.80
2023-02-04T15:26:15.540Z,10.80
2023-02-04T15:31:19.402Z,10.70
2023-02-04T15:36:23.217Z,10.60
2023-02-04T15:41:28.519Z,10.60
2023-02-04T15:46:32.510Z,10.50
2023-02-04T15:57:17.766Z,10.40
2023-02-04T16:02:21.589Z,10.40
2023-02-04T16:07:25.744Z,10.30
2023-02-04T16:12:30.864Z,10.20
2023-02-04T16:17:34.645Z,10.20
2023-02-04T16:22:38.394Z,10.20
2023-02-04T16:27:43.726Z,10.20
2023-02-04T16:32:47.484Z,10.10
2023-02-04T16:37:51.168Z,10.10
2023-02-04T16:42:56.229Z,10.00
2023-02-04T16:47:59.882Z,10.00
2023-02-04T16:53:03.726Z,9.90
2023-02-04T16:58:09.157Z,9.90
2023-02-04T17:03:13.751Z,9.90
2023-02-04T17:08:17.752Z,9.90
2023-02-04T17:13:23.053Z,9.90
2023-02-04T17:18:27.199Z,9.90
2023-02-04T17:23:31.030Z,9.90
2023-02-04T17:28:36.196Z,9.90
2023-02-04T17:33:39.978Z,9.90
2023-02-04T17:38:43.670Z,9.90
2023-02-04T17:43:48.747Z,9.80
2023-02-04T17:48:52.932Z,9.90
2023-02-04T17:53:56.638Z,9.80
2023-02-04T17:59:01.918Z,9.80
2023-02-04T18:04:07.609Z,9.80
2023-02-04T18:09:16.118Z,9.80
2023-02-04T18:14:28.480Z,9.80
2023-02-04T18:19:37.081Z,9.80
2023-02-04T18:24:42.994Z,9.80
2023-02-04T18:29:50.237Z,9.70
2023-02-04T18:34:56.019Z,9.70
2023-02-04T18:40:23.476Z,9.80
2023-02-04T18:45:30.643Z,9.80
2023-02-04T18:50:36.373Z,9.80
2023-02-04T18:55:41.711Z,9.70
2023-02-04T19:00:51.126Z,9.70
2023-02-04T19:05:57.318Z,9.80
2023-02-04T19:11:01.677Z,9.70
2023-02-04T19:16:19.171Z,9.70
2023-02-04T19:21:28.768Z,9.70
2023-02-04T19:26:40.322Z,9.70
2023-02-04T19:31:45.522Z,9.70
2023-02-04T19:36:49.225Z,9.70
2023-02-04T19:41:53.963Z,9.70
2023-02-04T19:47:19.221Z,9.70
2023-02-04T19:52:33.355Z,9.70
2023-02-04T19:57:37.224Z,9.70
2023-02-04T20:02:42.404Z,9.70
2023-02-04T20:07:47.046Z,9.70
2023-02-04T20:12:52.316Z,9.70
2023-02-04T20:17:59.522Z,9.70
2023-02-04T20:23:03.451Z,9.70
2023-02-04T20:28:30.080Z,9.70
2023-02-04T20:33:46.003Z,9.70
2023-02-04T20:38:49.896Z,9.60
2023-02-04T20:43:53.594Z,9.60
2023-02-04T20:48:58.607Z,9.60
2023-02-04T20:54:09.422Z,9.60
2023-02-04T20:59:34.768Z,9.60
2023-02-04T21:04:43.567Z,9.60
2023-02-04T21:09:48.234Z,9.50
2023-02-04T21:14:52.566Z,9.50
2023-02-04T21:19:57.844Z,9.60
2023-02-04T21:25:01.500Z,9.50
2023-02-04T21:30:05.711Z,9.60
2023-02-04T21:35:11.082Z,9.60
2023-02-04T21:40:16.361Z,9.50
2023-02-04T21:45:21.970Z,9.50
2023-02-04T21:50:30.261Z,9.50
2023-02-04T21:55:34.434Z,9.50
2023-02-04T22:00:38.366Z,9.50
2023-02-04T22:05:43.868Z,9.50
2023-02-04T22:10:47.574Z,9.50
2023-02-04T22:15:51.310Z,9.40
2023-02-04T22:20:56.430Z,9.40
2023-02-04T22:26:00.134Z,9.40
2023-02-04T22:31:03.998Z,9.40
2023-02-04T22:36:12.233Z,9.40
2023-02-04T22:41:15.989Z,9.40
2023-02-04T22:46:19.685Z,9.30
2023-02-04T22:51:25.268Z,9.30
2023-02-04T22:56:29.218Z,9.30
2023-02-04T23:01:33.027Z,9.30
2023-02-04T23:06:40.823Z,9.30
2023-02-04T23:11:44.723Z,9.30
2023-02-04T23:16:49.139Z,9.30
2023-02-04T23:21:54.212Z,9.30
2023-02-04T23:26:59.985Z,9.30
2023-02-04T23:32:04.580Z,9.30
2023-02-04T23:37:09.647Z,9.30
2023-02-04T23:42:13.682Z,9.20
2023-02-04T23:47:17.472Z,9.30
2023-02-04T23:52:22.562Z,9.20
2023-02-04T23:57:26.283Z,9.20
